Time;durP1;ratioP1;P1;durP2;ratioP2;P2;SDS_P1;SDS_P2;PMS_P1;PMS_P2;Temp;Humidity;BMP_temperature;BMP_pressure;BME280_temperature;BME280_humidity;BME280_pressure;Samples;Min_cycle;Max_cycle;Signal;HPM_P1;HPM_P2
2023/09/25 00:04:02;;;;;;;2.70;0.88;;;;;;;20.02;47.70;102008.63;16116603;19;130323;-50
2023/09/25 00:09:23;;;;;;;2.63;0.95;;;;;;;20.02;47.46;102013.34;16115730;19;130160;-50
2023/09/25 00:14:46;;;;;;;1.23;0.80;;;;;;;20.01;47.85;102018.03;16114264;19;129857;-52
2023/09/25 00:20:12;;;;;;;3.42;0.63;;;;;;;20.01;47.84;102022.75;16117540;19;130985;-52
2023/09/25 00:25:35;;;;;;;1.85;0.80;;;;;;;20.01;47.90;102022.75;16113255;19;130791;-48
2023/09/25 00:30:57;;;;;;;3.00;1.10;;;;;;;20.01;47.72;102025.53;16116813;19;130787;-50
2023/09/25 00:36:19;;;;;;;1.70;0.90;;;;;;;19.99;47.67;102023.81;16111995;19;130535;-50
2023/09/25 00:41:41;;;;;;;1.23;0.75;;;;;;;19.98;47.86;102024.88;16110012;19;130538;-49
2023/09/25 00:47:04;;;;;;;2.55;0.80;;;;;;;19.98;47.71;102019.31;16112028;19;130290;-44
2023/09/25 00:52:26;;;;;;;1.38;0.77;;;;;;;19.96;47.94;102015.91;16110057;19;133886;-47
2023/09/25 00:57:51;;;;;;;1.40;0.82;;;;;;;19.97;47.51;102014.84;16110930;19;129983;-50
2023/09/25 01:03:13;;;;;;;1.10;0.60;;;;;;;19.96;48.09;102015.91;16107189;19;130962;-44
2023/09/25 01:08:35;;;;;;;2.00;0.80;;;;;;;19.96;47.80;102023.41;16107417;19;129860;-49
2023/09/25 01:13:57;;;;;;;1.55;0.60;;;;;;;19.96;47.92;102026.19;16110910;19;130395;-47
2023/09/25 01:19:19;;;;;;;1.65;0.70;;;;;;;19.95;47.63;102024.47;16109300;19;130701;-47
2023/09/25 01:24:41;;;;;;;1.38;0.70;;;;;;;19.94;47.60;102022.78;16109863;19;129583;-51
2023/09/25 01:30:04;;;;;;;1.15;0.55;;;;;;;19.94;47.87;102028.34;16111242;19;129707;-46
2023/09/25 01:35:27;;;;;;;2.53;0.63;;;;;;;19.93;47.61;102016.41;16104320;19;130881;-47
2023/09/25 01:40:49;;;;;;;0.85;0.60;;;;;;;19.92;48.05;102020.25;16110682;19;130310;-51
2023/09/25 01:46:11;;;;;;;0.88;0.60;;;;;;;19.91;47.97;102014.91;16108569;19;131174;-51
2023/09/25 01:51:33;;;;;;;1.13;0.70;;;;;;;19.90;47.57;102016.84;16103211;19;131003;-51
2023/09/25 01:56:55;;;;;;;0.93;0.50;;;;;;;19.90;47.83;102014.06;16109558;19;129676;-44
2023/09/25 02:02:17;;;;;;;1.95;0.60;;;;;;;19.90;47.58;101999.31;16106674;19;129631;-47
2023/09/25 02:07:40;;;;;;;1.08;0.77;;;;;;;19.90;47.72;102011.28;16113299;19;131250;-52
2023/09/25 02:13:03;;;;;;;1.15;0.57;;;;;;;19.88;48.06;102010.66;16122099;19;130502;-50
2023/09/25 02:18:25;;;;;;;0.68;0.55;;;;;;;19.89;47.71;102006.81;16120822;19;131589;-51
2023/09/25 02:23:47;;;;;;;0.82;0.60;;;;;;;19.88;47.85;101999.56;16123523;19;130349;-47
2023/09/25 02:29:11;;;;;;;1.90;0.60;;;;;;;19.88;47.66;101988.44;16120231;19;130746;-47
2023/09/25 02:34:33;;;;;;;1.00;0.50;;;;;;;19.87;48.02;101983.97;16115920;19;130601;-47
2023/09/25 02:39:55;;;;;;;2.17;0.60;;;;;;;19.88;47.91;101996.78;16121041;19;129643;-46
2023/09/25 02:45:17;;;;;;;0.68;0.68;;;;;;;19.87;48.04;102003.41;16117746;19;130282;-49
2023/09/25 02:50:39;;;;;;;0.60;0.60;;;;;;;19.86;47.92;101998.94;16119415;19;129940;-46
2023/09/25 02:56:01;;;;;;;1.27;0.70;;;;;;;19.86;47.83;101993.38;16114228;19;131026;-44
2023/09/25 03:01:23;;;;;;;1.27;0.60;;;;;;;19.85;48.15;101997.22;16116816;19;129067;-48
2023/09/25 03:06:45;;;;;;;0.80;0.70;;;;;;;19.86;47.69;102010.03;16125513;19;130289;-52
2023/09/25 03:12:09;;;;;;;0.73;0.63;;;;;;;19.84;47.98;102003.84;16122585;19;129677;-50
2023/09/25 03:17:32;;;;;;;0.55;0.40;;;;;;;19.84;47.87;102001.06;16116828;19;130231;-49
2023/09/25 03:22:57;;;;;;;1.05;0.57;;;;;;;19.82;47.68;102004.09;16123144;19;129120;-48
2023/09/25 03:28:19;;;;;;;0.93;0.40;;;;;;;19.82;47.90;102004.09;16120234;19;130200;-49
2023/09/25 03:33:41;;;;;;;2.55;0.85;;;;;;;19.83;48.03;101996.59;16114330;19;130252;-44
2023/09/25 03:39:04;;;;;;;0.63;0.50;;;;;;;19.81;47.99;101996.00;16117434;19;130857;-47
2023/09/25 03:44:26;;;;;;;1.00;0.68;;;;;;;19.80;48.01;101997.91;16114199;19;130706;-48
2023/09/25 03:49:48;;;;;;;1.00;0.50;;;;;;;19.81;47.61;102007.13;16116071;19;129804;-45
2023/09/25 03:55:10;;;;;;;0.55;0.32;;;;;;;19.80;47.90;102008.19;16116850;19;130884;-48
2023/09/25 04:00:32;;;;;;;0.52;0.47;;;;;;;19.79;47.84;102007.31;16114497;19;134448;-48
2023/09/25 04:05:54;;;;;;;1.02;0.65;;;;;;;19.79;48.06;102012.03;16119279;19;129794;-45
2023/09/25 04:11:18;;;;;;;1.20;0.52;;;;;;;19.78;47.69;102010.34;16120043;19;130340;-49
2023/09/25 04:16:40;;;;;;;1.15;0.40;;;;;;;19.78;47.88;102008.41;16112431;19;130849;-46
2023/09/25 04:22:06;;;;;;;1.17;0.50;;;;;;;19.77;47.65;102006.69;16114558;19;130509;-49
2023/09/25 04:27:29;;;;;;;1.52;0.40;;;;;;;19.76;47.81;102018.03;16112198;19;131442;-47
2023/09/25 04:32:54;;;;;;;0.75;0.60;;;;;;;19.76;47.87;102018.03;16110155;19;129730;-48
2023/09/25 04:38:17;;;;;;;0.60;0.57;;;;;;;19.76;47.83;102020.81;16112042;19;129399;-46
2023/09/25 04:43:39;;;;;;;1.92;0.75;;;;;;;19.75;47.62;102024.66;16114592;19;130742;-48
2023/09/25 04:49:01;;;;;;;0.80;0.60;;;;;;;19.75;47.89;102030.22;16112505;19;129651;-49
2023/09/25 04:54:23;;;;;;;1.30;0.80;;;;;;;19.73;47.97;102033.25;16114589;19;131151;-48
2023/09/25 04:59:45;;;;;;;0.40;0.38;;;;;;;19.75;48.03;102033.00;16112934;19;129957;-46
2023/09/25 05:05:07;;;;;;;0.75;0.40;;;;;;;19.73;47.69;102038.78;16106528;19;131068;-48
2023/09/25 05:10:30;;;;;;;0.60;0.40;;;;;;;19.72;47.61;102042.63;16107124;19;130872;-48
2023/09/25 05:15:52;;;;;;;2.00;0.60;;;;;;;19.71;47.53;102040.94;16108005;19;130516;-48
2023/09/25 05:21:15;;;;;;;3.95;0.50;;;;;;;19.69;47.65;102041.13;16105652;19;130872;-49
2023/09/25 05:26:37;;;;;;;0.77;0.43;;;;;;;19.71;47.57;102045.63;16105917;19;131809;-45
2023/09/25 05:32:00;;;;;;;3.90;0.75;;;;;;;19.70;47.54;102044.78;16106729;19;129957;-50
2023/09/25 05:37:22;;;;;;;1.52;0.68;;;;;;;19.68;47.58;102039.47;16110624;19;131050;-47
2023/09/25 05:42:46;;;;;;;2.50;0.40;;;;;;;19.68;47.72;102055.25;16118387;19;129434;-46
2023/09/25 05:48:09;;;;;;;3.70;0.77;;;;;;;19.66;47.77;102061.06;16124506;19;130871;-51
2023/09/25 05:53:31;;;;;;;2.08;0.60;;;;;;;19.66;47.66;102061.06;16121622;19;129751;-46
2023/09/25 05:58:53;;;;;;;2.72;0.70;;;;;;;19.67;48.06;102059.09;16124703;19;129714;-50
2023/09/25 06:04:16;;;;;;;1.38;0.52;;;;;;;19.67;47.74;102057.19;16123074;19;129209;-48
2023/09/25 06:09:38;;;;;;;1.50;0.50;;;;;;;19.69;47.51;102054.19;16118326;19;130901;-46
2023/09/25 06:15:01;;;;;;;0.95;0.60;;;;;;;19.73;47.68;102060.13;16121142;19;129485;-50
2023/09/25 06:20:26;;;;;;;0.90;0.50;;;;;;;19.75;47.84;102057.97;16119607;19;129828;-50
2023/09/25 06:25:49;;;;;;;0.57;0.50;;;;;;;19.77;47.85;102064.16;16122141;19;131005;-48
2023/09/25 06:31:12;;;;;;;1.23;0.52;;;;;;;19.78;47.74;102063.94;16121122;19;129498;-46
2023/09/25 06:36:35;;;;;;;1.67;0.60;;;;;;;19.82;47.24;102059.63;16116590;19;130976;-51
2023/09/25 06:41:57;;;;;;;4.00;0.70;;;;;;;19.88;47.10;102068.16;16120977;19;130058;-45
2023/09/25 06:47:20;;;;;;;1.83;0.80;;;;;;;19.91;46.88;102056.56;16114988;19;130466;-53
2023/09/25 06:52:42;;;;;;;3.58;1.00;;;;;;;19.95;46.19;102057.81;16116895;19;130889;-49
2023/09/25 06:58:05;;;;;;;3.63;1.02;;;;;;;20.01;46.00;102069.97;16119064;19;130157;-47
2023/09/25 07:03:30;;;;;;;3.10;1.20;;;;;;;20.04;45.76;102064.81;16115483;19;129844;-52
2023/09/25 07:08:52;;;;;;;2.67;0.70;;;;;;;20.05;46.12;102062.88;16117160;19;129668;-49
2023/09/25 07:14:15;;;;;;;5.15;0.90;;;;;;;20.08;46.14;102059.63;16117806;19;130359;-53
2023/09/25 07:19:37;;;;;;;5.72;0.85;;;;;;;20.12;45.85;102069.22;16117098;19;130537;-50
2023/09/25 07:24:59;;;;;;;6.18;1.20;;;;;;;20.15;45.52;102068.78;16117656;19;130965;-49
2023/09/25 07:30:21;;;;;;;2.92;0.73;;;;;;;20.20;45.82;102071.69;16116012;19;129684;-51
2023/09/25 07:35:43;;;;;;;3.28;0.65;;;;;;;20.25;45.21;102069.09;16117621;19;129379;-47
2023/09/25 07:41:08;;;;;;;1.25;0.82;;;;;;;20.31;45.36;102072.03;16115775;19;129195;-50
2023/09/25 07:46:31;;;;;;;3.28;1.27;;;;;;;20.32;45.38;102076.50;16112992;19;131039;-47
2023/09/25 07:51:53;;;;;;;2.63;0.90;;;;;;;20.36;45.25;102064.72;16114428;19;130094;-48
2023/09/25 07:57:19;;;;;;;3.00;1.00;;;;;;;20.38;45.21;102070.03;16112226;19;129622;-51
2023/09/25 08:02:47;;;;;;;3.95;0.70;;;;;;;20.43;44.90;102070.19;16112584;19;130243;-49
2023/09/25 08:08:12;;;;;;;7.47;1.13;;;;;;;20.50;44.55;102065.41;16114851;19;131473;-48
2023/09/25 08:13:34;;;;;;;3.00;0.93;;;;;;;20.85;44.15;102073.13;16111854;19;129595;-53
2023/09/25 08:18:56;;;;;;;3.05;1.27;;;;;;;21.00;43.75;102066.31;16113997;19;130597;-50
2023/09/25 08:24:19;;;;;;;5.68;0.95;;;;;;;20.89;43.62;102066.03;16112654;19;130159;-51
2023/09/25 08:29:41;;;;;;;3.75;1.05;;;;;;;20.80;43.62;102058.22;16112903;19;131038;-47
2023/09/25 08:35:04;;;;;;;3.55;0.98;;;;;;;20.73;43.65;102047.16;16113648;19;131870;-46
2023/09/25 08:40:31;;;;;;;1.88;1.00;;;;;;;20.67;43.38;102054.50;16113227;19;131868;-47
2023/09/25 08:45:55;;;;;;;2.22;0.93;;;;;;;20.63;43.51;102052.41;16109586;19;129868;-45
2023/09/25 08:51:18;;;;;;;2.65;0.93;;;;;;;20.59;43.73;102055.66;16112211;19;129699;-48
2023/09/25 08:56:41;;;;;;;5.80;0.85;;;;;;;20.56;43.34;102064.47;16110465;19;129734;-50
2023/09/25 09:02:04;;;;;;;4.95;1.25;;;;;;;20.56;43.47;102061.69;16105905;19;129778;-51
2023/09/25 09:07:26;;;;;;;1.63;0.85;;;;;;;20.56;43.25;102074.75;16109539;19;132790;-48
2023/09/25 09:12:53;;;;;;;3.28;1.13;;;;;;;20.56;42.84;102075.56;16110073;19;130024;-50
2023/09/25 09:18:25;;;;;;;5.03;1.50;;;;;;;20.55;42.99;102081.38;16123804;19;131121;-49
2023/09/25 09:23:49;;;;;;;5.53;1.20;;;;;;;20.56;43.30;102083.09;16125936;19;129845;-48
2023/09/25 09:29:14;;;;;;;5.28;1.10;;;;;;;20.56;42.83;102083.91;16125196;19;134879;-53
2023/09/25 09:34:41;;;;;;;1.40;0.80;;;;;;;20.57;43.11;102076.44;16122166;19;132066;-50
2023/09/25 09:40:11;;;;;;;2.70;1.23;;;;;;;20.63;42.86;102085.78;16122600;19;129965;-51
2023/09/25 09:45:34;;;;;;;4.00;1.27;;;;;;;20.63;42.76;102077.44;16122636;19;131802;-51
2023/09/25 09:51:03;;;;;;;2.97;1.10;;;;;;;20.64;42.47;102081.94;16123675;19;131423;-46
2023/09/25 09:56:27;;;;;;;3.55;1.30;;;;;;;20.64;42.51;102077.19;16122626;19;129844;-47
2023/09/25 10:01:49;;;;;;;2.88;1.15;;;;;;;20.64;42.21;102076.38;16123209;19;129331;-48
2023/09/25 10:07:12;;;;;;;1.63;1.08;;;;;;;20.64;42.46;102076.38;16122823;19;129730;-49
2023/09/25 10:12:50;;;;;;;3.17;1.10;;;;;;;20.67;42.37;102075.91;16120869;19;130867;-46
2023/09/25 10:18:13;;;;;;;3.97;1.10;;;;;;;20.66;42.49;102063.94;16123435;19;130987;-52
2023/09/25 10:23:38;;;;;;;3.45;1.00;;;;;;;20.69;42.17;102073.72;16122809;19;130131;-50
2023/09/25 10:29:20;;;;;;;2.03;1.10;;;;;;;20.70;42.52;102081.84;16119437;19;130346;-52
2023/09/25 10:34:42;;;;;;;5.53;1.38;;;;;;;20.72;42.50;102067.69;16121749;19;130821;-49
2023/09/25 10:40:05;;;;;;;2.72;1.17;;;;;;;20.73;42.41;102063.84;16123123;19;131207;-49
2023/09/25 10:45:27;;;;;;;2.08;0.93;;;;;;;20.74;42.57;102068.31;16119122;19;129206;-48
2023/09/25 10:50:50;;;;;;;2.92;1.05;;;;;;;20.75;42.37;102072.81;16119180;19;129445;-48
2023/09/25 10:56:12;;;;;;;3.30;1.13;;;;;;;20.76;42.63;102091.22;16120839;19;130695;-53
2023/09/25 11:01:35;;;;;;;6.22;1.30;;;;;;;20.77;42.44;102089.28;16118814;19;129683;-50
2023/09/25 11:06:58;;;;;;;2.67;1.10;;;;;;;20.79;42.77;102081.56;16118887;19;130877;-52
2023/09/25 11:12:20;;;;;;;3.75;1.00;;;;;;;20.79;42.75;102082.44;16117639;19;130229;-52
2023/09/25 11:17:44;;;;;;;2.78;1.27;;;;;;;20.82;42.61;102090.28;16118339;19;130373;-50
2023/09/25 11:23:10;;;;;;;2.25;1.08;;;;;;;20.85;42.81;102081.47;16116911;19;131200;-50
2023/09/25 11:28:42;;;;;;;4.60;1.25;;;;;;;20.86;42.72;102079.56;16120132;19;129770;-51
2023/09/25 11:34:08;;;;;;;3.83;1.20;;;;;;;20.88;42.56;102085.72;16117725;19;130201;-52
2023/09/25 11:39:32;;;;;;;3.20;1.13;;;;;;;20.88;42.97;102089.38;16117282;19;130729;-52
2023/09/25 11:44:54;;;;;;;4.65;1.10;;;;;;;20.90;43.06;102087.19;16116785;19;130488;-48
2023/09/25 11:50:16;;;;;;;2.42;1.30;;;;;;;20.92;42.60;102081.38;16115499;19;130222;-51
2023/09/25 11:55:39;;;;;;;2.83;1.08;;;;;;;20.93;42.80;102079.44;16113819;19;129766;-51
2023/09/25 12:01:02;;;;;;;3.58;1.33;;;;;;;20.94;42.92;102082.00;16118449;19;130180;-50
2023/09/25 12:06:28;;;;;;;2.47;1.10;;;;;;;20.94;42.78;102087.56;16115814;19;130043;-53
2023/09/25 12:11:51;;;;;;;2.75;1.10;;;;;;;20.97;42.88;102091.81;16116793;19;129615;-49
2023/09/25 12:17:16;;;;;;;2.10;1.20;;;;;;;20.96;42.72;102095.69;16113211;19;131028;-51
2023/09/25 12:22:44;;;;;;;3.50;1.00;;;;;;;20.96;43.03;102090.97;16111062;19;128928;-52
2023/09/25 12:28:06;;;;;;;2.55;1.30;;;;;;;20.95;42.61;102094.84;16112856;19;130927;-51
2023/09/25 12:33:28;;;;;;;2.10;1.20;;;;;;;20.95;43.16;102093.97;16113080;19;129816;-48
2023/09/25 12:38:51;;;;;;;3.30;1.13;;;;;;;20.95;42.74;102086.50;16111518;19;131341;-50
2023/09/25 12:44:13;;;;;;;3.63;1.50;;;;;;;20.94;43.04;102089.50;16112500;19;130059;-51
2023/09/25 12:49:35;;;;;;;3.45;1.40;;;;;;;20.95;43.16;102093.97;16108038;19;130987;-51
2023/09/25 12:54:58;;;;;;;2.92;1.20;;;;;;;20.94;43.04;102098.69;16113848;19;131053;-48
2023/09/25 13:00:21;;;;;;;2.63;1.20;;;;;;;20.93;42.74;102093.34;16108937;19;130507;-48
2023/09/25 13:05:43;;;;;;;2.70;1.23;;;;;;;20.95;42.99;102096.75;16113275;19;129611;-49
2023/09/25 13:11:05;;;;;;;2.03;1.30;;;;;;;20.94;43.17;102086.72;16113513;19;129420;-50
2023/09/25 13:16:30;;;;;;;2.58;1.42;;;;;;;20.94;42.91;102078.38;16112737;19;129500;-45
2023/09/25 13:21:52;;;;;;;2.53;1.50;;;;;;;20.93;43.36;102071.97;16114995;19;130378;-51
2023/09/25 13:27:14;;;;;;;3.20;1.48;;;;;;;20.93;43.21;102073.88;16112083;19;131159;-48
2023/09/25 13:32:37;;;;;;;1.90;1.20;;;;;;;20.92;42.92;102070.25;16109111;19;131272;-47
2023/09/25 13:37:59;;;;;;;1.70;1.10;;;;;;;20.93;43.25;102071.09;16111189;19;129507;-48
2023/09/25 13:43:22;;;;;;;1.88;1.10;;;;;;;20.90;43.37;102070.50;16110741;19;129726;-49
2023/09/25 13:48:44;;;;;;;3.72;1.90;;;;;;;20.91;43.04;102065.78;16111568;19;130054;-51
2023/09/25 13:54:06;;;;;;;2.03;1.30;;;;;;;20.90;43.45;102064.94;16105932;19;129689;-48
2023/09/25 13:59:29;;;;;;;2.53;1.15;;;;;;;20.92;43.45;102066.66;16104349;19;129556;-48
2023/09/25 14:04:51;;;;;;;2.38;1.30;;;;;;;20.92;43.31;102061.09;16123419;19;129411;-49
2023/09/25 14:10:14;;;;;;;3.97;1.60;;;;;;;20.90;43.28;102045.47;16118936;19;135242;-50
2023/09/25 14:15:38;;;;;;;3.00;1.42;;;;;;;20.90;43.03;102048.25;16118779;19;129940;-49
2023/09/25 14:21:00;;;;;;;3.03;1.33;;;;;;;20.92;43.26;102044.41;16120996;19;131759;-48
2023/09/25 14:26:22;;;;;;;3.45;1.50;;;;;;;20.92;43.13;102050.78;16118286;19;129717;-49
2023/09/25 14:31:44;;;;;;;4.50;1.58;;;;;;;20.91;43.41;102043.53;16118867;19;129631;-50
2023/09/25 14:37:06;;;;;;;3.17;1.58;;;;;;;20.92;43.33;102045.22;16121379;19;130463;-47
2023/09/25 14:42:30;;;;;;;3.45;1.20;;;;;;;20.93;43.31;102046.94;16118920;19;129484;-47
2023/09/25 14:47:52;;;;;;;2.13;1.30;;;;;;;20.96;43.57;102056.72;16119087;19;131191;-50
2023/09/25 14:53:14;;;;;;;2.22;1.40;;;;;;;20.96;43.24;102053.94;16120629;19;130165;-54
2023/09/25 14:58:37;;;;;;;2.90;1.40;;;;;;;20.95;43.51;102055.91;16115730;19;129602;-53
2023/09/25 15:03:58;;;;;;;2.28;1.40;;;;;;;20.94;43.36;102056.09;16117973;19;129495;-50
2023/09/25 15:09:21;;;;;;;5.15;1.40;;;;;;;20.95;43.68;102055.03;16117603;19;129198;-50
2023/09/25 15:14:43;;;;;;;6.32;1.70;;;;;;;20.95;43.27;102055.91;16119271;19;129734;-50
2023/09/25 15:20:06;;;;;;;3.70;1.50;;;;;;;20.96;43.45;102059.50;16117715;19;129419;-44
2023/09/25 15:25:30;;;;;;;3.35;1.40;;;;;;;20.95;43.65;102050.34;16114720;19;129715;-46
2023/09/25 15:30:52;;;;;;;2.63;1.38;;;;;;;20.96;43.42;102053.94;16117183;19;130681;-49
2023/09/25 15:36:14;;;;;;;4.45;1.27;;;;;;;20.95;43.69;102055.91;16113676;19;130221;-49
2023/09/25 15:41:36;;;;;;;2.28;1.25;;;;;;;20.96;43.83;102063.16;16108796;19;129838;-49
2023/09/25 15:46:59;;;;;;;1.30;0.90;;;;;;;20.96;43.83;102067.84;16114694;19;129977;-49
2023/09/25 15:52:21;;;;;;;2.75;1.20;;;;;;;20.93;43.79;102071.09;16110997;19;129923;-51
2023/09/25 15:57:43;;;;;;;2.58;1.42;;;;;;;20.92;44.48;102073.03;16112399;19;131160;-50
2023/09/25 16:03:05;;;;;;;2.17;1.35;;;;;;;20.88;44.13;102078.22;16112878;19;129536;-49
2023/09/25 16:08:27;;;;;;;3.53;1.30;;;;;;;20.87;44.56;102076.53;16117631;19;130852;-49
2023/09/25 16:13:49;;;;;;;1.85;1.05;;;;;;;20.85;44.44;102080.66;16115657;19;129826;-49
2023/09/25 16:19:12;;;;;;;2.30;1.02;;;;;;;20.81;44.30;102088.56;16116901;19;130158;-50
2023/09/25 16:24:34;;;;;;;8.55;1.48;;;;;;;20.80;44.42;102081.31;16111020;19;131226;-48
2023/09/25 16:29:56;;;;;;;3.03;1.15;;;;;;;20.80;44.64;102084.09;16114857;19;130216;-50
2023/09/25 16:35:20;;;;;;;2.17;1.05;;;;;;;20.77;44.65;102084.59;16110120;19;130754;-50
2023/09/25 16:40:45;;;;;;;1.73;0.88;;;;;;;20.76;44.81;102091.22;16104378;19;130724;-46
2023/09/25 16:46:07;;;;;;;3.47;1.17;;;;;;;20.73;44.92;102092.53;16111281;19;130583;-49
2023/09/25 16:51:30;;;;;;;2.13;1.10;;;;;;;20.72;45.04;102089.94;16110144;19;130145;-53
2023/09/25 16:56:52;;;;;;;3.30;1.33;;;;;;;20.71;44.86;102094.69;16113371;19;132191;-49
2023/09/25 17:02:14;;;;;;;1.65;0.80;;;;;;;20.70;45.13;102086.53;16109581;19;130433;-48
2023/09/25 17:07:37;;;;;;;4.57;1.13;;;;;;;20.67;45.00;102089.81;16106912;19;129907;-49
2023/09/25 17:12:59;;;;;;;1.67;0.98;;;;;;;20.66;44.83;102097.28;16107503;19;130019;-50
2023/09/25 17:18:21;;;;;;;1.83;0.90;;;;;;;20.63;44.87;102099.69;16107403;19;131555;-52
2023/09/25 17:23:44;;;;;;;3.17;1.13;;;;;;;20.62;44.90;102104.38;16106087;19;129571;-49
2023/09/25 17:29:06;;;;;;;2.33;1.10;;;;;;;20.62;44.93;102111.88;16108082;19;129546;-48
2023/09/25 17:34:28;;;;;;;1.85;1.00;;;;;;;20.59;45.20;102102.09;16108801;19;131091;-48
2023/09/25 17:39:50;;;;;;;3.20;1.30;;;;;;;20.57;45.34;102110.63;16117225;19;132319;-51
2023/09/25 17:45:12;;;;;;;1.88;1.15;;;;;;;20.56;45.40;102117.28;16119301;19;130660;-53
2023/09/25 17:50:34;;;;;;;3.80;1.30;;;;;;;20.56;45.62;102116.44;16127227;19;130781;-47
2023/09/25 17:55:56;;;;;;;2.67;1.40;;;;;;;20.53;45.42;102117.75;16117976;19;130426;-51
2023/09/25 18:01:19;;;;;;;1.80;1.10;;;;;;;20.52;45.51;102121.63;16121130;19;129968;-48
2023/09/25 18:06:43;;;;;;;2.95;1.38;;;;;;;20.51;45.62;102122.69;16119241;19;129658;-53
2023/09/25 18:12:05;;;;;;;3.90;1.45;;;;;;;20.51;45.32;102128.25;16124198;19;129522;-49
2023/09/25 18:17:27;;;;;;;2.10;1.20;;;;;;;20.50;45.81;102125.69;16121580;19;130921;-52
2023/09/25 18:22:49;;;;;;;3.35;1.50;;;;;;;20.50;45.45;102125.69;16124954;19;129484;-51
2023/09/25 18:28:12;;;;;;;5.82;1.45;;;;;;;20.48;45.91;102128.72;16123457;19;133751;-46
2023/09/25 18:33:34;;;;;;;6.18;1.35;;;;;;;20.47;45.48;102138.13;16120949;19;130765;-50
2023/09/25 18:38:57;;;;;;;4.57;1.58;;;;;;;20.44;45.88;102130.25;16112858;19;130880;-54
2023/09/25 18:44:21;;;;;;;26.55;2.85;;;;;;;20.45;47.04;102129.16;16117163;19;130483;-54
2023/09/25 18:49:44;;;;;;;16.07;2.43;;;;;;;20.51;47.43;102125.47;16113513;19;130565;-56
2023/09/25 18:55:06;;;;;;;15.50;2.65;;;;;;;20.56;47.77;102124.78;16118123;19;131618;-51
2023/09/25 19:00:28;;;;;;;15.52;3.22;;;;;;;20.63;47.47;102119.16;16117871;19;130431;-54
2023/09/25 19:05:51;;;;;;;19.83;2.58;;;;;;;20.66;47.41;102116.75;16118342;19;130284;-54
2023/09/25 19:11:13;;;;;;;10.60;3.05;;;;;;;20.70;47.54;102123.56;16120758;19;131372;-51
2023/09/25 19:16:35;;;;;;;10.20;2.70;;;;;;;20.74;47.64;102121.16;16120139;19;131218;-51
2023/09/25 19:21:57;;;;;;;11.25;2.42;;;;;;;20.77;47.65;102122.66;16119060;19;130473;-54
2023/09/25 19:27:20;;;;;;;16.35;2.20;;;;;;;20.80;47.90;102125.81;16115299;19;130906;-52
2023/09/25 19:32:43;;;;;;;11.55;2.50;;;;;;;20.82;47.86;102132.00;16118629;19;130926;-53
2023/09/25 19:38:05;;;;;;;15.85;3.05;;;;;;;20.83;47.75;102125.34;16114191;19;131754;-53
2023/09/25 19:43:27;;;;;;;12.10;2.30;;;;;;;20.82;47.65;102123.66;16114708;19;130227;-54
2023/09/25 19:48:49;;;;;;;12.02;2.10;;;;;;;20.81;47.60;102127.50;16118387;19;130530;-52
2023/09/25 19:54:12;;;;;;;15.02;2.00;;;;;;;20.81;47.77;102127.50;16116635;19;131002;-52
2023/09/25 19:59:34;;;;;;;9.45;2.08;;;;;;;20.80;47.43;102125.81;16117401;19;131272;-54
2023/09/25 20:04:56;;;;;;;9.80;2.80;;;;;;;20.79;47.29;102146.38;16122707;19;130190;-51
2023/09/25 20:10:21;;;;;;;7.72;1.83;;;;;;;20.80;47.20;102136.09;16122096;19;129904;-53
2023/09/25 20:15:43;;;;;;;;;;;;;;;20.77;47.45;102136.56;16117182;19;130616;-54
2023/09/25 20:21:06;;;;;;;9.85;1.90;;;;;;;20.77;47.47;102145.75;16116207;19;130453;-50
2023/09/25 20:26:28;;;;;;;13.90;1.85;;;;;;;20.74;47.15;102135.06;16121868;19;129774;-53
2023/09/25 20:31:50;;;;;;;9.90;2.00;;;;;;;20.71;47.52;102133.59;16121826;19;130866;-52
2023/09/25 20:37:12;;;;;;;6.03;1.77;;;;;;;20.68;47.55;102127.63;16118968;19;129548;-52
2023/09/25 20:42:36;;;;;;;8.38;2.20;;;;;;;20.65;47.42;102136.47;16110011;19;130015;-52
2023/09/25 20:47:58;;;;;;;6.03;1.60;;;;;;;20.63;47.04;102135.84;16111984;19;129809;-53
2023/09/25 20:53:21;;;;;;;9.57;1.95;;;;;;;20.60;47.03;102132.44;16112708;19;130008;-53
2023/09/25 20:58:43;;;;;;;13.15;2.13;;;;;;;20.59;47.59;102124.34;16112540;19;130209;-53
2023/09/25 21:04:05;;;;;;;6.50;1.65;;;;;;;20.57;47.32;102126.50;16109901;19;131704;-54
2023/09/25 21:09:27;;;;;;;7.03;1.73;;;;;;;20.55;47.23;102123.94;16111711;19;130445;-49
2023/09/25 21:14:49;;;;;;;8.23;1.55;;;;;;;20.54;47.21;102115.81;16127007;19;129787;-53
2023/09/25 21:20:11;;;;;;;5.70;1.83;;;;;;;20.53;47.38;102122.47;16122882;19;130033;-54
2023/09/25 21:25:34;;;;;;;10.98;1.60;;;;;;;20.51;47.09;102119.06;16122179;19;130980;-51
2023/09/25 21:30:56;;;;;;;8.98;2.00;;;;;;;20.50;47.27;102120.13;16124867;19;129671;-52
2023/09/25 21:36:19;;;;;;;6.60;1.70;;;;;;;20.49;47.17;102124.03;16120566;19;129603;-48
2023/09/25 21:41:41;;;;;;;6.57;1.48;;;;;;;20.47;47.46;102118.66;16122503;19;130353;-51
2023/09/25 21:47:03;;;;;;;4.82;1.55;;;;;;;20.46;47.17;102114.19;16120274;19;130473;-48
2023/09/25 21:52:25;;;;;;;4.97;1.70;;;;;;;20.45;47.26;102123.59;16122235;19;130938;-54
2023/09/25 21:57:47;;;;;;;4.57;1.80;;;;;;;20.44;47.56;102125.56;16122514;19;130202;-50
2023/09/25 22:03:10;;;;;;;5.78;1.90;;;;;;;20.44;47.49;102121.91;16126119;19;130734;-52
2023/09/25 22:08:32;;;;;;;3.38;1.63;;;;;;;20.41;47.45;102117.66;16120259;19;130936;-51
2023/09/25 22:13:54;;;;;;;3.33;1.50;;;;;;;20.40;47.32;102126.25;16122853;19;129780;-53
2023/09/25 22:19:18;;;;;;;7.63;1.73;;;;;;;20.40;47.57;102117.91;16120412;19;130221;-53
2023/09/25 22:24:40;;;;;;;7.53;1.67;;;;;;;20.38;47.24;102118.09;16119014;19;130015;-54
2023/09/25 22:30:05;;;;;;;5.65;1.30;;;;;;;20.37;47.36;102110.84;16120110;19;130099;-55
2023/09/25 22:35:27;;;;;;;4.15;1.60;;;;;;;20.37;47.49;102112.78;16121481;19;132479;-53
2023/09/25 22:40:49;;;;;;;5.57;1.88;;;;;;;20.35;47.55;102103.84;16123091;19;129853;-51
2023/09/25 22:46:11;;;;;;;3.28;1.70;;;;;;;20.34;47.56;102100.22;16116163;19;129951;-50
2023/09/25 22:51:33;;;;;;;5.32;1.65;;;;;;;20.34;47.13;102102.13;16116658;19;131277;-54
2023/09/25 22:56:55;;;;;;;3.65;1.38;;;;;;;20.33;47.41;102112.41;16118286;19;129930;-49
2023/09/25 23:02:18;;;;;;;4.20;1.73;;;;;;;20.34;47.75;102099.34;16122873;19;130605;-52
2023/09/25 23:07:47;;;;;;;3.53;1.40;;;;;;;20.32;47.10;102090.38;16119096;19;130296;-48
2023/09/25 23:13:10;;;;;;;3.63;1.63;;;;;;;20.31;47.25;102083.16;16117588;19;131543;-54
2023/09/25 23:18:32;;;;;;;4.72;1.52;;;;;;;20.29;47.52;102087.00;16118104;19;134331;-53
2023/09/25 23:23:54;;;;;;;5.32;1.50;;;;;;;20.28;47.33;102096.44;16121102;19;129935;-52
2023/09/25 23:29:16;;;;;;;4.85;1.75;;;;;;;20.29;47.45;102091.69;16118027;19;131272;-48
2023/09/25 23:34:38;;;;;;;5.20;1.55;;;;;;;20.27;47.58;102083.59;16113230;19;130308;-50
2023/09/25 23:40:00;;;;;;;8.43;1.50;;;;;;;20.27;47.13;102088.28;16117523;19;129812;-48
2023/09/25 23:45:22;;;;;;;3.20;1.40;;;;;;;20.25;47.53;102085.75;16114974;19;130665;-51
2023/09/25 23:50:44;;;;;;;4.15;1.45;;;;;;;20.24;47.24;102089.63;16117788;19;130452;-51
2023/09/25 23:56:06;;;;;;;3.00;1.10;;;;;;;20.25;47.19;102091.31;16114170;19;129463;-47
